Time;durP1;ratioP1;P1;durP2;ratioP2;P2;SDS_P1;SDS_P2;PMS_P1;PMS_P2;Temp;Humidity;BMP_temperature;BMP_pressure;BME280_temperature;BME280_humidity;BME280_pressure;Samples;Min_cycle;Max_cycle;Signal;HPM_P1;HPM_P2
2023/05/02 00:02:02;;;;;;;3.78;2.97;;;21.60;42.30;;;;;;5067997;28;20085;-60
2023/05/02 00:04:28;;;;;;;3.55;2.80;;;21.60;42.30;;;;;;5085944;28;20106;-62
2023/05/02 00:06:54;;;;;;;3.60;3.00;;;21.60;42.30;;;;;;5068054;28;20218;-61
2023/05/02 00:09:20;;;;;;;3.20;2.80;;;21.60;42.30;;;;;;5086169;28;20071;-61
2023/05/02 00:11:46;;;;;;;3.58;2.75;;;21.60;42.40;;;;;;5087909;28;20016;-61
2023/05/02 00:14:12;;;;;;;3.20;2.67;;;21.60;42.40;;;;;;5086573;28;20016;-61
2023/05/02 00:16:38;;;;;;;2.80;2.38;;;21.60;42.40;;;;;;5088137;28;20024;-60
2023/05/02 00:19:03;;;;;;;3.00;2.50;;;21.60;42.40;;;;;;5085999;28;20088;-61
2023/05/02 00:21:30;;;;;;;2.25;2.00;;;21.60;42.40;;;;;;5089195;28;20035;-61
2023/05/02 00:23:56;;;;;;;2.35;2.15;;;21.60;42.30;;;;;;5086777;28;20028;-61
2023/05/02 00:26:22;;;;;;;2.40;2.20;;;21.60;42.30;;;;;;5088186;28;20344;-60
2023/05/02 00:28:49;;;;;;;3.08;2.42;;;21.50;42.20;;;;;;5088068;28;20024;-61
2023/05/02 00:31:15;;;;;;;3.33;2.35;;;21.50;42.20;;;;;;5087462;28;20099;-61
2023/05/02 00:33:41;;;;;;;2.30;2.00;;;21.60;42.30;;;;;;5086586;28;20035;-61
2023/05/02 00:36:15;;;;;;;2.42;2.10;;;21.50;42.20;;;;;;5073986;28;20035;-61
2023/05/02 00:38:40;;;;;;;2.97;2.50;;;21.50;42.20;;;;;;5085945;28;20081;-61
2023/05/02 00:41:06;;;;;;;2.17;1.98;;;21.50;42.20;;;;;;5088774;28;20032;-60
2023/05/02 00:43:33;;;;;;;2.63;2.28;;;21.50;42.20;;;;;;5085248;28;20535;-61
2023/05/02 00:45:59;;;;;;;2.13;1.92;;;21.50;42.20;;;;;;5068902;28;20044;-61
2023/05/02 00:48:25;;;;;;;2.75;2.20;;;21.50;42.20;;;;;;5083392;28;20047;-60
2023/05/02 00:50:51;;;;;;;2.70;2.10;;;21.50;42.20;;;;;;5069631;28;20024;-61
2023/05/02 00:53:17;;;;;;;3.25;2.25;;;21.50;42.20;;;;;;5070223;28;20039;-61
2023/05/02 00:55:44;;;;;;;2.42;2.20;;;21.50;42.20;;;;;;5068871;28;20020;-60
2023/05/02 00:58:15;;;;;;;2.92;2.47;;;21.50;42.20;;;;;;5068171;28;20036;-60
2023/05/02 01:01:09;;;;;;;2.85;2.25;;;21.50;42.20;;;;;;5069329;28;20032;-60
2023/05/02 01:03:49;;;;;;;3.17;1.92;;;21.50;42.20;;;;;;5050338;28;20024;-61
2023/05/02 01:06:38;;;;;;;3.20;2.08;;;21.50;42.20;;;;;;5087121;28;20082;-62
2023/05/02 01:09:33;;;;;;;2.53;2.10;;;21.50;42.30;;;;;;5069872;28;20031;-61
2023/05/02 01:12:16;;;;;;;2.80;2.20;;;21.50;42.30;;;;;;5087234;28;20308;-61
2023/05/02 01:14:48;;;;;;;3.42;2.00;;;21.50;42.40;;;;;;5086952;28;20396;-60
2023/05/02 01:17:16;;;;;;;3.72;2.47;;;21.50;42.40;;;;;;5067390;28;20062;-61
2023/05/02 01:19:50;;;;;;;3.15;2.45;;;21.40;42.40;;;;;;5066139;28;20021;-61
2023/05/02 01:22:16;;;;;;;3.58;2.40;;;21.40;42.40;;;;;;5069564;28;20407;-61
2023/05/02 01:24:58;;;;;;;4.78;2.33;;;21.50;42.40;;;;;;5069222;28;20024;-61
2023/05/02 01:27:54;;;;;;;2.72;1.88;;;21.40;42.40;;;;;;5066198;28;20378;-61
2023/05/02 01:30:23;;;;;;;2.63;1.98;;;21.40;42.40;;;;;;5084499;28;20112;-61
2023/05/02 01:32:52;;;;;;;2.45;2.00;;;21.40;42.40;;;;;;5086679;28;20031;-61
2023/05/02 01:35:20;;;;;;;2.33;2.08;;;21.40;42.50;;;;;;5088494;28;20097;-61
2023/05/02 01:37:48;;;;;;;2.75;1.95;;;21.40;42.50;;;;;;5089858;28;20097;-60
2023/05/02 01:40:18;;;;;;;2.45;2.10;;;21.40;42.50;;;;;;5073666;28;20032;-61
2023/05/02 01:42:47;;;;;;;2.17;1.90;;;21.40;42.50;;;;;;5073104;28;20050;-61
2023/05/02 01:45:14;;;;;;;3.05;2.17;;;21.40;42.50;;;;;;5088279;28;20157;-61
2023/05/02 01:47:43;;;;;;;3.92;2.72;;;21.40;42.60;;;;;;5091008;28;20032;-61
2023/05/02 01:50:12;;;;;;;3.05;1.85;;;21.40;42.60;;;;;;5090728;28;21639;-60
2023/05/02 01:52:39;;;;;;;3.28;2.00;;;21.40;42.70;;;;;;5088687;28;20065;-59
2023/05/02 01:55:09;;;;;;;3.55;2.08;;;21.40;42.70;;;;;;5072222;28;20036;-61
2023/05/02 01:57:38;;;;;;;3.20;2.00;;;21.40;42.70;;;;;;5089893;28;21270;-60
2023/05/02 02:00:06;;;;;;;2.50;2.00;;;21.40;42.70;;;;;;5073485;28;20051;-61
2023/05/02 02:02:42;;;;;;;3.28;2.25;;;21.40;42.80;;;;;;5089280;28;20028;-61
2023/05/02 02:05:09;;;;;;;2.90;2.35;;;21.30;42.80;;;;;;5089325;28;20066;-60
2023/05/02 02:07:37;;;;;;;3.08;2.15;;;21.40;42.80;;;;;;5071925;28;20411;-59
2023/05/02 02:10:03;;;;;;;3.22;2.20;;;21.30;42.80;;;;;;5072830;28;20110;-59
2023/05/02 02:12:59;;;;;;;3.65;2.10;;;21.30;42.90;;;;;;5088890;28;20375;-61
2023/05/02 02:15:27;;;;;;;3.40;1.98;;;21.30;42.90;;;;;;5070297;28;20790;-61
2023/05/02 02:18:13;;;;;;;5.72;2.10;;;21.40;43.00;;;;;;5084952;28;20024;-61
2023/05/02 02:20:43;;;;;;;2.90;1.92;;;21.30;43.00;;;;;;5090949;28;20024;-61
2023/05/02 02:23:10;;;;;;;2.42;1.90;;;21.30;43.00;;;;;;5086331;28;20094;-60
2023/05/02 02:25:37;;;;;;;1.92;1.50;;;21.30;43.00;;;;;;5072986;28;20086;-61
2023/05/02 02:28:03;;;;;;;2.22;1.55;;;21.30;43.00;;;;;;5088766;28;20059;-61
2023/05/02 02:30:29;;;;;;;1.92;1.30;;;21.30;43.00;;;;;;5072842;28;20115;-60
2023/05/02 02:32:55;;;;;;;3.30;1.50;;;21.30;43.00;;;;;;5089259;28;20309;-60
2023/05/02 02:35:21;;;;;;;1.70;1.30;;;21.30;43.00;;;;;;5090007;28;20049;-60
2023/05/02 02:38:06;;;;;;;2.08;1.30;;;21.30;43.00;;;;;;5071333;28;20059;-60
2023/05/02 02:40:50;;;;;;;3.15;1.80;;;21.30;43.00;;;;;;5090972;28;20089;-61
2023/05/02 02:43:37;;;;;;;1.92;1.20;;;21.30;43.00;;;;;;5088997;28;20055;-61
2023/05/02 02:46:19;;;;;;;3.88;1.40;;;21.30;43.00;;;;;;5053165;28;20132;-60
2023/05/02 02:48:54;;;;;;;2.28;1.20;;;21.30;43.00;;;;;;5087978;28;20044;-62
2023/05/02 02:51:37;;;;;;;2.05;1.25;;;21.30;42.90;;;;;;5088980;28;20080;-60
2023/05/02 02:54:28;;;;;;;2.33;1.20;;;21.30;42.90;;;;;;5088803;28;20324;-61
2023/05/02 02:57:11;;;;;;;3.20;1.38;;;21.30;42.80;;;;;;5089435;28;20028;-60
2023/05/02 02:59:41;;;;;;;2.38;1.23;;;21.20;42.70;;;;;;5087668;28;20028;-62
2023/05/02 03:02:16;;;;;;;2.60;1.20;;;21.30;42.80;;;;;;5069475;28;20420;-61
2023/05/02 03:04:43;;;;;;;2.20;1.30;;;21.30;42.80;;;;;;5088511;28;20098;-61
2023/05/02 03:07:09;;;;;;;2.83;1.30;;;21.20;42.70;;;;;;5070925;28;20036;-61
2023/05/02 03:09:43;;;;;;;3.05;1.08;;;21.20;42.60;;;;;;5053660;28;20154;-62
2023/05/02 03:12:11;;;;;;;1.85;1.10;;;21.20;42.60;;;;;;5090201;28;20043;-61
2023/05/02 03:14:39;;;;;;;2.75;1.50;;;21.20;42.60;;;;;;5069624;28;20027;-61
2023/05/02 03:17:07;;;;;;;2.08;1.40;;;21.20;42.60;;;;;;5052383;28;20024;-60
2023/05/02 03:19:33;;;;;;;2.67;1.30;;;21.20;42.60;;;;;;5070271;28;20028;-61
2023/05/02 03:22:00;;;;;;;3.72;1.23;;;21.20;42.60;;;;;;5071273;28;21289;-61
2023/05/02 03:24:26;;;;;;;3.72;1.30;;;21.20;42.60;;;;;;5070773;28;20142;-60
2023/05/02 03:26:57;;;;;;;2.97;1.27;;;21.20;42.60;;;;;;5074358;28;20063;-60
2023/05/02 03:29:27;;;;;;;;;;;21.20;42.50;;;;;;5051259;28;20382;-60
2023/05/02 03:31:53;;;;;;;3.75;1.10;;;21.20;42.50;;;;;;5068279;28;20211;-60
2023/05/02 03:34:21;;;;;;;2.25;1.15;;;21.20;42.50;;;;;;5070541;28;20024;-61
2023/05/02 03:36:48;;;;;;;2.88;1.70;;;21.20;43.10;;;;;;5071378;28;20524;-60
2023/05/02 03:39:14;;;;;;;2.22;1.30;;;21.20;42.40;;;;;;5071165;28;20044;-62
2023/05/02 03:41:42;;;;;;;2.15;1.10;;;21.20;42.40;;;;;;5068105;28;20024;-62
2023/05/02 03:44:11;;;;;;;2.58;1.27;;;21.20;42.40;;;;;;5067471;28;20132;-62
2023/05/02 03:46:37;;;;;;;2.03;1.08;;;21.20;42.40;;;;;;5054375;28;20097;-60
2023/05/02 03:49:07;;;;;;;3.28;1.23;;;21.20;42.40;;;;;;5068953;28;20432;-60
2023/05/02 03:51:34;;;;;;;2.58;1.20;;;21.20;42.40;;;;;;5088123;28;20432;-62
2023/05/02 03:54:03;;;;;;;2.15;1.10;;;21.20;42.40;;;;;;5070140;28;20093;-61
2023/05/02 03:56:30;;;;;;;1.85;1.00;;;21.20;42.30;;;;;;5070262;28;20057;-61
2023/05/02 03:59:08;;;;;;;1.60;0.82;;;21.20;42.30;;;;;;5073534;28;20058;-62
2023/05/02 04:01:34;;;;;;;1.63;0.90;;;21.20;42.30;;;;;;5067547;28;20102;-59
2023/05/02 04:04:01;;;;;;;1.55;1.05;;;21.20;42.30;;;;;;5070524;28;20032;-62
2023/05/02 04:06:31;;;;;;;2.47;1.15;;;21.20;42.20;;;;;;5072670;28;20044;-62
2023/05/02 04:09:00;;;;;;;2.90;1.25;;;21.20;42.20;;;;;;5068529;28;20464;-61
2023/05/02 04:11:33;;;;;;;3.05;1.10;;;21.10;42.20;;;;;;5064932;28;20085;-61
2023/05/02 04:14:01;;;;;;;2.50;1.10;;;21.10;42.10;;;;;;5070103;28;20167;-61
2023/05/02 04:16:27;;;;;;;2.60;1.20;;;21.10;42.10;;;;;;5069903;28;20028;-59
2023/05/02 04:18:53;;;;;;;1.90;1.00;;;21.10;42.10;;;;;;5067307;28;20343;-60
2023/05/02 04:21:19;;;;;;;2.38;1.17;;;21.10;42.10;;;;;;5076222;28;20028;-62
2023/05/02 04:23:46;;;;;;;2.20;1.00;;;21.10;42.10;;;;;;5069695;28;20443;-60
2023/05/02 04:26:14;;;;;;;1.65;0.80;;;21.10;42.10;;;;;;5070008;28;20331;-60
2023/05/02 04:28:46;;;;;;;2.83;1.37;;;21.10;42.10;;;;;;5068751;28;20119;-62
2023/05/02 04:31:14;;;;;;;1.90;1.25;;;21.10;42.10;;;;;;5070540;28;20293;-60
2023/05/02 04:33:42;;;;;;;1.70;0.90;;;21.10;42.00;;;;;;5068032;28;20161;-59
2023/05/02 04:36:09;;;;;;;2.13;1.08;;;21.10;42.00;;;;;;5073202;28;20412;-60
2023/05/02 04:38:36;;;;;;;1.63;0.88;;;21.10;42.00;;;;;;5068642;28;20043;-60
2023/05/02 04:41:02;;;;;;;2.25;0.90;;;21.10;42.00;;;;;;5087971;28;20036;-62
2023/05/02 04:43:36;;;;;;;;;;;21.10;41.90;;;;;;5066926;28;20081;-61
2023/05/02 04:46:02;;;;;;;1.75;0.85;;;21.10;41.90;;;;;;5072903;28;19916;-60
2023/05/02 04:48:32;;;;;;;2.58;1.02;;;21.10;41.90;;;;;;5069238;28;20062;-61
2023/05/02 04:50:58;;;;;;;2.47;0.82;;;21.00;41.80;;;;;;5089968;28;20316;-60
2023/05/02 04:53:25;;;;;;;1.73;0.82;;;21.10;41.80;;;;;;5069474;28;20490;-59
2023/05/02 04:55:51;;;;;;;1.80;0.93;;;21.10;41.70;;;;;;5067478;28;20028;-61
2023/05/02 04:58:17;;;;;;;2.28;1.00;;;21.10;41.70;;;;;;5066684;28;20098;-61
2023/05/02 05:00:47;;;;;;;1.45;0.70;;;21.00;41.50;;;;;;5070338;28;20059;-60
2023/05/02 05:03:13;;;;;;;1.00;0.68;;;21.00;41.50;;;;;;5069265;28;20412;-61
2023/05/02 05:05:39;;;;;;;2.45;0.93;;;21.10;41.50;;;;;;5049575;28;20028;-60
2023/05/02 05:08:08;;;;;;;1.63;1.02;;;21.00;41.40;;;;;;5064809;28;20079;-61
2023/05/02 05:10:36;;;;;;;2.47;0.98;;;21.00;41.30;;;;;;5068946;28;20051;-61
2023/05/02 05:13:03;;;;;;;1.90;0.70;;;21.00;41.30;;;;;;5052894;28;20091;-60
2023/05/02 05:15:30;;;;;;;1.77;0.90;;;21.00;41.20;;;;;;5068800;28;20453;-61
2023/05/02 05:17:59;;;;;;;2.10;1.10;;;21.00;41.10;;;;;;5052364;28;20534;-61
2023/05/02 05:20:25;;;;;;;1.77;0.80;;;21.00;41.00;;;;;;5052104;28;20115;-61
2023/05/02 05:22:54;;;;;;;1.95;1.00;;;21.00;41.00;;;;;;5068511;28;20354;-60
2023/05/02 05:25:21;;;;;;;2.13;0.98;;;21.00;40.90;;;;;;5069723;28;20405;-61
2023/05/02 05:27:51;;;;;;;2.60;1.08;;;21.00;40.90;;;;;;5069384;28;20024;-60
2023/05/02 05:30:17;;;;;;;0.98;0.75;;;21.00;40.80;;;;;;5065858;28;20051;-61
2023/05/02 05:32:43;;;;;;;1.50;1.00;;;21.00;40.70;;;;;;5067966;28;20075;-60
2023/05/02 05:35:10;;;;;;;2.22;1.10;;;21.00;40.70;;;;;;5069166;28;20071;-61
2023/05/02 05:37:38;;;;;;;1.50;1.00;;;21.00;40.70;;;;;;5069410;28;20108;-62
2023/05/02 05:40:07;;;;;;;4.00;1.10;;;21.00;40.60;;;;;;5069591;28;20032;-60
2023/05/02 05:42:34;;;;;;;2.20;0.93;;;21.00;40.60;;;;;;5066857;28;20131;-60
2023/05/02 05:45:04;;;;;;;3.42;0.98;;;21.00;40.60;;;;;;5068757;28;20364;-60
2023/05/02 05:47:30;;;;;;;2.63;0.90;;;21.00;40.60;;;;;;5069661;28;20039;-59
2023/05/02 05:49:56;;;;;;;2.33;0.93;;;21.00;40.60;;;;;;5068600;28;20155;-60
2023/05/02 05:52:26;;;;;;;1.67;0.80;;;21.00;40.60;;;;;;5068301;28;20016;-64
2023/05/02 05:54:55;;;;;;;1.95;0.90;;;21.00;40.50;;;;;;5069257;28;20409;-59
2023/05/02 05:57:21;;;;;;;2.05;0.80;;;21.00;40.40;;;;;;5087815;28;20093;-62
2023/05/02 05:59:48;;;;;;;3.00;1.15;;;21.00;40.40;;;;;;5083639;28;20080;-60
2023/05/02 06:02:15;;;;;;;4.03;1.23;;;21.10;40.40;;;;;;5068358;28;20058;-60
2023/05/02 06:04:41;;;;;;;3.08;0.95;;;21.00;40.30;;;;;;5069835;28;20303;-62
2023/05/02 06:07:08;;;;;;;2.20;0.98;;;21.00;40.30;;;;;;5066235;28;20106;-63
2023/05/02 06:09:35;;;;;;;1.65;0.93;;;21.00;40.20;;;;;;5085912;28;20359;-60
2023/05/02 06:12:01;;;;;;;1.90;0.82;;;21.00;40.20;;;;;;5066323;28;20095;-60
2023/05/02 06:14:31;;;;;;;2.30;0.98;;;21.00;40.20;;;;;;5065928;28;20046;-60
2023/05/02 06:17:00;;;;;;;3.42;1.00;;;21.00;40.10;;;;;;5064912;28;20028;-62
2023/05/02 06:19:27;;;;;;;3.10;1.15;;;21.00;40.10;;;;;;5079075;28;20361;-60
2023/05/02 06:21:52;;;;;;;2.42;0.88;;;21.00;40.20;;;;;;5067815;28;20024;-60
2023/05/02 06:24:18;;;;;;;3.15;1.15;;;21.00;40.10;;;;;;5085177;28;20196;-61
2023/05/02 06:26:45;;;;;;;4.88;1.50;;;21.10;40.20;;;;;;5085718;28;20358;-61
2023/05/02 06:29:10;;;;;;;3.95;1.00;;;21.00;40.70;;;;;;5087025;28;20024;-60
2023/05/02 06:31:36;;;;;;;4.82;1.73;;;21.00;40.00;;;;;;5066783;28;20024;-60
2023/05/02 06:34:02;;;;;;;2.33;1.20;;;21.00;40.00;;;;;;5047966;28;20040;-61
2023/05/02 06:36:28;;;;;;;3.80;0.90;;;21.00;40.00;;;;;;5084533;28;20468;-60
2023/05/02 06:38:54;;;;;;;3.20;0.98;;;21.00;40.00;;;;;;5067368;28;20332;-60
2023/05/02 06:41:20;;;;;;;2.97;1.00;;;21.10;40.10;;;;;;5087098;28;20035;-60
2023/05/02 06:43:46;;;;;;;3.83;1.13;;;21.10;40.10;;;;;;5087034;28;20079;-62
2023/05/02 06:46:12;;;;;;;4.18;1.20;;;21.10;40.00;;;;;;5069288;28;20040;-60
2023/05/02 06:48:38;;;;;;;4.15;1.27;;;21.10;39.80;;;;;;5087012;28;20058;-60
2023/05/02 06:51:04;;;;;;;4.65;1.65;;;21.10;39.70;;;;;;5087615;28;20454;-60
2023/05/02 06:53:30;;;;;;;3.70;1.23;;;21.10;39.50;;;;;;5093412;28;20051;-62
2023/05/02 06:55:56;;;;;;;5.15;1.20;;;21.10;39.40;;;;;;5093491;28;20083;-62
2023/05/02 06:58:22;;;;;;;3.70;1.33;;;21.10;39.30;;;;;;5093363;28;20058;-60
2023/05/02 07:00:49;;;;;;;2.53;0.95;;;21.10;39.20;;;;;;5093247;28;20040;-61
2023/05/02 07:03:15;;;;;;;3.28;1.25;;;21.10;39.00;;;;;;5075018;28;20075;-60
2023/05/02 07:05:41;;;;;;;1.90;1.10;;;21.10;38.90;;;;;;5069721;28;20040;-61
2023/05/02 07:08:07;;;;;;;3.08;1.13;;;21.10;38.80;;;;;;5083886;28;20055;-61
2023/05/02 07:10:33;;;;;;;2.28;0.93;;;21.10;38.70;;;;;;5093104;28;20063;-60
2023/05/02 07:12:59;;;;;;;4.25;1.00;;;21.10;38.60;;;;;;5089361;28;20048;-61
2023/05/02 07:15:25;;;;;;;2.05;0.80;;;21.10;38.60;;;;;;5087347;28;20032;-61
2023/05/02 07:17:51;;;;;;;4.20;1.20;;;21.10;38.50;;;;;;5086356;28;20333;-60
2023/05/02 07:20:17;;;;;;;3.80;1.10;;;21.10;39.00;;;;;;5085997;28;20075;-60
2023/05/02 07:22:42;;;;;;;2.60;0.88;;;21.10;38.30;;;;;;5085873;28;20403;-60
2023/05/02 07:25:09;;;;;;;2.13;0.93;;;21.10;38.10;;;;;;5087895;28;20055;-61
2023/05/02 07:27:34;;;;;;;2.65;1.00;;;21.10;38.10;;;;;;5087522;28;20143;-61
2023/05/02 07:30:00;;;;;;;1.83;0.82;;;21.10;37.90;;;;;;5087801;28;20093;-60
2023/05/02 07:32:26;;;;;;;3.45;1.20;;;21.10;37.80;;;;;;5086082;28;20065;-61
2023/05/02 07:34:55;;;;;;;2.40;0.90;;;21.20;37.80;;;;;;5086413;28;20396;-60
2023/05/02 07:37:22;;;;;;;2.55;0.95;;;21.20;37.70;;;;;;5085568;28;20384;-60
2023/05/02 07:39:47;;;;;;;2.50;1.00;;;21.20;37.60;;;;;;5085480;28;20044;-60
2023/05/02 07:42:13;;;;;;;2.33;0.80;;;21.20;37.60;;;;;;5085263;28;20035;-61
2023/05/02 07:44:39;;;;;;;3.42;0.95;;;21.20;37.60;;;;;;5083967;28;20473;-59
2023/05/02 07:47:05;;;;;;;1.92;0.90;;;21.20;37.40;;;;;;5085941;28;20055;-61
2023/05/02 07:49:31;;;;;;;2.55;1.08;;;21.30;37.40;;;;;;5086541;28;20024;-60
2023/05/02 07:51:57;;;;;;;3.15;0.95;;;21.30;37.30;;;;;;5087349;28;20028;-61
2023/05/02 07:54:25;;;;;;;2.78;1.25;;;21.30;37.40;;;;;;5085052;28;20054;-61
2023/05/02 07:56:50;;;;;;;1.90;0.80;;;21.30;37.50;;;;;;5087868;28;20062;-60
2023/05/02 07:59:16;;;;;;;2.92;0.93;;;21.40;37.60;;;;;;5089784;28;20067;-61
2023/05/02 08:01:43;;;;;;;3.15;0.95;;;21.40;37.70;;;;;;5091705;28;20035;-61
2023/05/02 08:04:10;;;;;;;3.20;1.27;;;21.40;37.70;;;;;;5092072;28;20027;-63
2023/05/02 08:06:36;;;;;;;2.70;1.00;;;21.40;37.60;;;;;;5091119;28;20382;-61
2023/05/02 08:09:02;;;;;;;2.53;0.90;;;21.50;37.60;;;;;;5090662;28;20035;-61
2023/05/02 08:11:28;;;;;;;2.15;0.90;;;21.40;37.50;;;;;;5092087;28;20184;-62
2023/05/02 08:13:54;;;;;;;2.53;0.93;;;21.50;37.50;;;;;;5091322;28;20129;-61
2023/05/02 08:16:20;;;;;;;2.88;1.15;;;21.50;37.40;;;;;;5088789;28;20020;-62
2023/05/02 08:18:46;;;;;;;2.70;1.13;;;21.50;37.30;;;;;;5090183;28;20031;-60
2023/05/02 08:21:12;;;;;;;2.60;1.00;;;21.50;37.10;;;;;;5091550;28;20343;-61
2023/05/02 08:23:40;;;;;;;2.33;0.95;;;21.50;37.00;;;;;;5091597;28;20032;-61
2023/05/02 08:26:06;;;;;;;2.70;1.02;;;21.60;37.00;;;;;;5091850;28;20467;-61
2023/05/02 08:28:34;;;;;;;1.73;0.73;;;21.60;36.90;;;;;;5091456;28;20075;-61
2023/05/02 08:31:00;;;;;;;1.45;0.80;;;21.60;36.70;;;;;;5091512;28;20055;-61
2023/05/02 08:33:26;;;;;;;3.20;1.20;;;21.60;36.60;;;;;;5090736;28;20447;-60
2023/05/02 08:35:52;;;;;;;4.15;0.80;;;21.70;36.50;;;;;;5073095;28;20058;-60
2023/05/02 08:38:18;;;;;;;3.17;1.30;;;21.70;36.40;;;;;;5090074;28;20054;-62
2023/05/02 08:40:44;;;;;;;3.58;1.10;;;21.70;36.30;;;;;;5073051;28;20118;-61
2023/05/02 08:43:15;;;;;;;2.50;1.00;;;21.70;36.20;;;;;;5073068;28;20031;-59
2023/05/02 08:45:43;;;;;;;2.58;0.98;;;21.70;36.00;;;;;;5090297;28;20052;-62
2023/05/02 08:48:12;;;;;;;1.88;0.80;;;21.80;36.00;;;;;;5091010;28;20036;-61
2023/05/02 08:50:40;;;;;;;3.35;0.88;;;21.80;35.80;;;;;;5090763;28;20141;-61
2023/05/02 08:53:08;;;;;;;2.00;0.70;;;21.80;35.60;;;;;;5089836;28;20032;-62
2023/05/02 08:55:38;;;;;;;2.13;0.80;;;21.80;35.50;;;;;;5091120;28;20024;-62
2023/05/02 08:58:04;;;;;;;1.73;0.85;;;21.80;35.40;;;;;;5072815;28;20444;-60
2023/05/02 09:00:31;;;;;;;2.25;0.90;;;21.80;35.20;;;;;;5072864;28;20415;-62
2023/05/02 09:03:30;;;;;;;0.93;0.70;;;21.80;35.10;;;;;;5089959;28;20111;-61
2023/05/02 09:06:09;;;;;;;1.30;0.65;;;21.80;34.90;;;;;;5090686;28;20400;-60
2023/05/02 09:08:36;;;;;;;1.67;0.75;;;21.80;34.80;;;;;;5089979;28;20143;-62
2023/05/02 09:11:02;;;;;;;1.67;0.60;;;21.80;34.70;;;;;;5091051;28;20036;-60
2023/05/02 09:13:29;;;;;;;1.58;0.75;;;21.80;34.60;;;;;;5090548;28;20050;-60
2023/05/02 09:16:09;;;;;;;1.45;0.70;;;21.80;34.50;;;;;;5090710;28;20032;-62
2023/05/02 09:18:47;;;;;;;1.45;0.60;;;21.80;34.30;;;;;;5089327;28;20042;-61
2023/05/02 09:21:15;;;;;;;2.50;0.70;;;21.80;34.20;;;;;;5090632;28;20109;-61
2023/05/02 09:23:43;;;;;;;1.00;0.60;;;21.80;34.10;;;;;;5072756;28;20036;-61
2023/05/02 09:26:19;;;;;;;1.88;0.70;;;21.80;34.00;;;;;;5072651;28;20028;-61
2023/05/02 09:28:46;;;;;;;0.93;0.50;;;21.80;33.90;;;;;;5091015;28;20054;-62
2023/05/02 09:31:16;;;;;;;0.85;0.68;;;21.80;33.90;;;;;;5090265;28;20028;-63
2023/05/02 09:33:43;;;;;;;1.42;0.70;;;21.80;33.80;;;;;;5089569;28;20032;-62
2023/05/02 09:36:15;;;;;;;1.75;0.50;;;21.80;33.70;;;;;;5090659;28;20142;-61
2023/05/02 09:38:42;;;;;;;2.47;0.88;;;21.80;33.60;;;;;;5074982;28;20043;-61
2023/05/02 09:41:09;;;;;;;3.03;0.85;;;21.80;33.50;;;;;;5070249;28;20067;-61
2023/05/02 09:43:35;;;;;;;1.65;0.65;;;21.80;33.40;;;;;;5083806;28;20066;-62
2023/05/02 09:46:06;;;;;;;1.70;0.68;;;21.80;33.30;;;;;;5090569;28;20620;-62
2023/05/02 09:48:49;;;;;;;2.38;1.10;;;21.80;33.20;;;;;;5088466;28;20044;-59
2023/05/02 09:51:20;;;;;;;2.97;0.50;;;21.90;33.10;;;;;;5080928;28;20042;-61
2023/05/02 09:53:46;;;;;;;1.65;0.60;;;21.80;33.00;;;;;;5082112;28;20650;-60
2023/05/02 09:56:12;;;;;;;2.20;0.70;;;21.80;33.00;;;;;;5085845;28;20035;-61
2023/05/02 09:58:38;;;;;;;1.58;0.73;;;21.80;32.90;;;;;;5085815;28;20057;-62
2023/05/02 10:01:04;;;;;;;1.05;0.50;;;21.90;32.90;;;;;;5087037;28;20038;-62
2023/05/02 10:03:31;;;;;;;1.55;0.60;;;21.90;32.80;;;;;;5072326;28;20340;-60
2023/05/02 10:05:57;;;;;;;2.38;0.90;;;21.90;32.70;;;;;;5089336;28;20114;-63
2023/05/02 10:08:27;;;;;;;2.25;0.60;;;21.80;32.60;;;;;;5085707;28;20047;-61
2023/05/02 10:10:58;;;;;;;1.23;0.75;;;21.90;32.60;;;;;;5089207;28;20111;-60
2023/05/02 10:13:30;;;;;;;3.33;0.90;;;21.80;32.50;;;;;;5087527;28;20016;-62
2023/05/02 10:16:03;;;;;;;0.95;0.50;;;21.90;32.50;;;;;;5090515;28;20042;-62
2023/05/02 10:18:44;;;;;;;1.13;0.70;;;21.90;32.40;;;;;;5086993;28;20095;-62
2023/05/02 10:21:11;;;;;;;1.42;0.60;;;21.80;32.40;;;;;;5083716;28;20032;-60
2023/05/02 10:23:43;;;;;;;1.23;0.70;;;21.90;32.70;;;;;;5066334;28;20055;-62
2023/05/02 10:26:16;;;;;;;2.17;0.90;;;21.90;32.80;;;;;;5086516;28;20028;-59
2023/05/02 10:28:42;;;;;;;1.13;0.70;;;21.90;32.90;;;;;;5044168;28;20486;-60
2023/05/02 10:31:12;;;;;;;1.42;0.63;;;21.90;32.80;;;;;;5087870;28;20404;-61
2023/05/02 10:33:39;;;;;;;1.35;0.63;;;21.90;32.80;;;;;;5068934;28;20035;-62
2023/05/02 10:36:08;;;;;;;1.73;0.80;;;21.90;32.70;;;;;;5085663;28;20039;-61
2023/05/02 10:38:36;;;;;;;4.13;0.90;;;21.90;33.00;;;;;;5086706;28;20024;-61
2023/05/02 10:41:07;;;;;;;2.50;0.90;;;21.90;33.20;;;;;;5065629;28;20024;-61
2023/05/02 10:43:35;;;;;;;2.83;0.98;;;21.90;33.40;;;;;;5082650;28;20028;-62
2023/05/02 10:46:04;;;;;;;2.35;0.75;;;21.90;33.60;;;;;;5084150;28;20451;-60
2023/05/02 10:48:30;;;;;;;2.13;0.93;;;22.00;33.70;;;;;;5083388;28;20048;-61
2023/05/02 10:50:59;;;;;;;1.50;0.75;;;22.00;33.80;;;;;;5084749;28;20036;-59
2023/05/02 10:53:26;;;;;;;2.35;0.70;;;22.00;34.00;;;;;;5067661;28;20024;-59
2023/05/02 10:56:20;;;;;;;1.73;0.70;;;22.00;34.10;;;;;;5085890;28;20061;-59
2023/05/02 10:58:54;;;;;;;3.20;0.93;;;22.00;34.10;;;;;;5085619;28;20328;-59
2023/05/02 11:01:33;;;;;;;2.00;0.52;;;22.00;34.10;;;;;;5087340;28;20436;-59
2023/05/02 11:04:03;;;;;;;2.70;0.93;;;22.10;34.40;;;;;;5087517;28;20326;-60
2023/05/02 11:06:33;;;;;;;5.03;1.00;;;22.10;34.60;;;;;;5090857;28;20411;-58
2023/05/02 11:09:22;;;;;;;1.52;0.88;;;22.10;34.50;;;;;;5089229;28;20293;-60
2023/05/02 11:11:49;;;;;;;3.50;0.90;;;22.10;34.30;;;;;;5078561;28;20063;-61
2023/05/02 11:14:31;;;;;;;1.60;0.82;;;22.10;34.20;;;;;;5092007;28;20046;-59
2023/05/02 11:17:00;;;;;;;2.60;0.82;;;22.10;33.90;;;;;;5089350;28;20425;-60
2023/05/02 11:19:29;;;;;;;2.38;0.93;;;22.10;33.80;;;;;;5090251;28;20027;-60
2023/05/02 11:22:13;;;;;;;1.80;0.90;;;22.10;33.60;;;;;;5088452;28;20024;-59
2023/05/02 11:24:41;;;;;;;2.75;0.93;;;22.10;33.40;;;;;;5065975;28;20370;-61
2023/05/02 11:27:32;;;;;;;1.92;0.80;;;22.10;33.30;;;;;;5085438;28;20381;-60
2023/05/02 11:30:07;;;;;;;1.85;0.80;;;22.10;33.20;;;;;;5084843;28;20453;-61
2023/05/02 11:32:48;;;;;;;1.38;0.70;;;22.10;33.10;;;;;;5085875;28;20098;-60
2023/05/02 11:35:19;;;;;;;1.45;0.70;;;22.10;32.90;;;;;;5084173;28;20100;-60
2023/05/02 11:37:56;;;;;;;3.22;1.50;;;22.10;32.80;;;;;;5085103;28;20107;-61
2023/05/02 11:40:22;;;;;;;5.50;2.22;;;22.10;32.80;;;;;;5085801;28;20032;-60
2023/05/02 11:42:48;;;;;;;10.48;2.40;;;22.10;33.10;;;;;;5085128;28;20400;-58
2023/05/02 11:45:14;;;;;;;7.38;2.60;;;22.10;33.30;;;;;;5083866;28;20094;-60
2023/05/02 11:47:41;;;;;;;7.88;2.15;;;22.10;33.50;;;;;;5086669;28;20039;-59
2023/05/02 11:50:10;;;;;;;4.35;1.77;;;22.10;33.70;;;;;;5084212;28;20020;-59
2023/05/02 11:52:38;;;;;;;6.55;1.90;;;22.10;33.80;;;;;;5088607;28;20028;-59
2023/05/02 11:55:06;;;;;;;6.70;1.80;;;22.20;33.80;;;;;;5070370;28;20024;-59
2023/05/02 11:57:35;;;;;;;3.92;1.85;;;22.20;33.80;;;;;;5090048;28;20126;-60
2023/05/02 12:00:00;;;;;;;5.97;1.70;;;22.20;33.70;;;;;;5089624;28;20024;-59
2023/05/02 12:02:43;;;;;;;7.10;1.95;;;22.20;33.60;;;;;;5088027;28;20611;-61
2023/05/02 12:05:13;;;;;;;5.97;1.70;;;22.20;33.40;;;;;;5083385;28;20036;-65
2023/05/02 12:07:41;;;;;;;4.15;1.40;;;22.20;33.40;;;;;;5085740;28;20051;-62
2023/05/02 12:10:08;;;;;;;4.63;1.40;;;22.20;33.30;;;;;;5067624;28;20038;-64
2023/05/02 12:12:34;;;;;;;6.13;1.75;;;22.20;33.10;;;;;;5085536;28;20043;-65
2023/05/02 12:15:05;;;;;;;3.75;1.50;;;22.30;33.00;;;;;;5085330;28;20553;-64
2023/05/02 12:17:32;;;;;;;2.97;1.30;;;22.30;32.90;;;;;;5061765;28;20030;-64
2023/05/02 12:19:58;;;;;;;5.85;1.30;;;22.40;32.70;;;;;;5086178;28;20036;-64
2023/05/02 12:22:25;;;;;;;3.22;1.38;;;22.50;32.60;;;;;;5085860;28;20100;-64
2023/05/02 12:24:52;;;;;;;4.30;1.45;;;22.50;32.50;;;;;;5086029;28;20020;-64
2023/05/02 12:27:18;;;;;;;2.10;1.02;;;22.60;32.50;;;;;;5081988;28;20122;-68
2023/05/02 12:29:46;;;;;;;1.70;0.90;;;22.70;32.40;;;;;;5068859;28;20416;-62
2023/05/02 12:32:13;;;;;;;4.25;1.30;;;22.80;32.40;;;;;;5067471;28;20035;-59
2023/05/02 12:34:40;;;;;;;3.25;1.08;;;22.90;32.90;;;;;;5081816;28;21154;-64
2023/05/02 12:37:07;;;;;;;3.50;1.00;;;23.00;33.10;;;;;;5079573;28;20081;-65
2023/05/02 12:39:36;;;;;;;2.50;1.00;;;23.10;33.20;;;;;;5083294;28;20032;-63
2023/05/02 12:42:12;;;;;;;1.50;0.90;;;23.20;33.10;;;;;;5082864;28;20426;-62
2023/05/02 12:44:43;;;;;;;3.75;1.42;;;23.30;33.10;;;;;;5084075;28;20367;-64
2023/05/02 12:47:10;;;;;;;1.30;0.80;;;23.40;33.10;;;;;;5083600;28;20121;-62
2023/05/02 12:49:55;;;;;;;2.95;0.95;;;23.50;33.70;;;;;;5084028;28;20131;-63
2023/05/02 12:52:48;;;;;;;1.73;0.70;;;23.60;33.50;;;;;;5081019;28;20047;-67
2023/05/02 12:55:27;;;;;;;1.90;1.08;;;23.70;33.60;;;;;;5083647;28;20163;-66
2023/05/02 12:58:09;;;;;;;2.50;1.13;;;23.80;33.50;;;;;;5082876;28;20043;-65
2023/05/02 13:00:41;;;;;;;1.77;0.80;;;23.90;33.40;;;;;;5084629;28;20060;-64